createdAt,value
2023-05-15T14:31:40.842Z,50.00
2023-05-15T14:32:40.844Z,50.00
2023-05-15T14:33:40.798Z,50.00
2023-05-15T14:34:40.799Z,50.00
2023-05-15T14:35:47.761Z,50.00
2023-05-15T14:36:40.774Z,50.00
2023-05-15T14:37:40.762Z,50.00
2023-05-15T14:38:40.754Z,50.00
2023-05-15T14:39:40.768Z,50.00
2023-05-15T14:40:40.774Z,50.00
2023-05-15T14:41:40.748Z,11.00
2023-05-15T14:42:40.785Z,0.00
2023-05-15T14:43:40.764Z,0.00
2023-05-15T14:44:40.744Z,0.00
2023-05-15T14:45:40.722Z,0.00
2023-05-15T14:46:40.880Z,0.00
2023-05-15T14:47:40.754Z,0.00
2023-05-15T14:48:40.780Z,0.00
2023-05-15T14:49:40.701Z,0.00
2023-05-15T14:50:40.694Z,0.00
2023-05-15T14:51:40.677Z,0.00
2023-05-15T14:52:40.680Z,0.00
2023-05-15T14:53:40.640Z,0.00
2023-05-15T14:55:00.611Z,0.00
2023-05-15T14:55:41.653Z,0.00
2023-05-15T14:56:40.622Z,0.00
2023-05-15T14:57:40.628Z,0.00
2023-05-15T14:58:40.645Z,0.00
2023-05-15T14:59:40.641Z,0.00
2023-05-15T15:00:40.635Z,0.00
2023-05-15T15:01:40.691Z,0.00
2023-05-15T15:02:40.642Z,0.00
2023-05-15T15:03:40.680Z,0.00
2023-05-15T15:04:40.593Z,0.00
2023-05-15T15:05:40.548Z,0.00
2023-05-15T15:06:40.580Z,0.00
2023-05-15T15:07:40.603Z,0.00
2023-05-15T15:08:40.588Z,0.00
2023-05-15T15:09:40.598Z,0.00
2023-05-15T15:10:40.522Z,0.00
2023-05-15T15:11:40.532Z,0.00
2023-05-15T15:12:40.540Z,0.00
2023-05-15T15:13:40.556Z,17.00
2023-05-15T15:14:40.514Z,31.81
2023-05-15T15:15:40.495Z,49.52
2023-05-15T15:16:40.697Z,50.13
2023-05-15T15:17:40.578Z,49.09
2023-05-15T15:18:40.510Z,49.35
2023-05-15T15:19:40.491Z,50.00
2023-05-15T15:20:40.507Z,51.74
2023-05-15T15:21:40.500Z,50.00
2023-05-15T15:22:40.520Z,50.00
2023-05-15T15:23:40.537Z,54.74
2023-05-15T15:24:41.014Z,49.38
2023-05-15T15:25:40.605Z,52.48
2023-05-15T15:26:40.636Z,50.00
2023-05-15T15:27:40.684Z,63.59
2023-05-15T15:28:40.721Z,63.43
2023-05-15T15:29:40.755Z,76.01
2023-05-15T15:30:40.794Z,69.19
2023-05-15T15:31:40.912Z,63.25
2023-05-15T15:32:40.884Z,42.83
2023-05-15T15:33:40.958Z,57.10
2023-05-15T15:34:41.038Z,69.79
2023-05-15T15:35:41.049Z,85.28
2023-05-15T15:36:48.609Z,90.11
2023-05-15T15:37:41.107Z,90.31
2023-05-15T15:38:41.126Z,90.62
2023-05-15T15:39:41.071Z,90.14
2023-05-15T15:40:41.068Z,89.36
2023-05-15T15:41:41.083Z,90.57
2023-05-15T15:42:41.071Z,89.29
2023-05-15T15:43:41.049Z,90.32
2023-05-15T15:44:41.044Z,87.46
2023-05-15T15:45:41.065Z,90.30
2023-05-15T15:46:41.039Z,88.92
2023-05-15T15:47:41.043Z,87.76
2023-05-15T15:48:48.040Z,89.17
2023-05-15T15:49:41.037Z,89.40
2023-05-15T15:50:41.019Z,89.47
2023-05-15T15:51:41.003Z,89.51
2023-05-15T15:52:40.997Z,87.45
2023-05-15T15:53:47.991Z,87.72
2023-05-15T15:54:40.969Z,89.44
2023-05-15T15:55:40.981Z,89.55
2023-05-15T15:56:40.955Z,89.24
2023-05-15T15:57:40.927Z,88.37
2023-05-15T15:58:41.016Z,85.24
2023-05-15T15:59:42.580Z,84.12
2023-05-15T16:00:40.943Z,86.24
2023-05-15T16:01:40.987Z,85.29
2023-05-15T16:02:40.990Z,83.39
2023-05-15T16:03:40.961Z,83.49
2023-05-15T16:04:40.937Z,84.26
2023-05-15T16:05:40.889Z,84.05
2023-05-15T16:06:40.896Z,80.16
2023-05-15T16:07:40.873Z,83.50
2023-05-15T16:08:41.002Z,83.37
2023-05-15T16:09:40.895Z,82.61
2023-05-15T16:10:40.866Z,83.65
2023-05-15T16:11:40.877Z,82.74
2023-05-15T16:12:40.978Z,81.59
2023-05-15T16:13:41.292Z,79.28
2023-05-15T16:14:40.838Z,80.91
2023-05-15T16:15:40.869Z,82.16
2023-05-15T16:16:40.870Z,82.70
2023-05-15T16:17:40.888Z,80.95
2023-05-15T16:18:40.874Z,79.37
2023-05-15T16:19:40.812Z,79.19
2023-05-15T16:20:40.819Z,77.83
2023-05-15T16:21:40.829Z,76.05
2023-05-15T16:22:47.865Z,76.63
2023-05-15T16:23:40.791Z,76.91
2023-05-15T16:24:40.829Z,77.38
2023-05-15T16:25:40.804Z,77.77
2023-05-15T16:26:40.767Z,76.88
2023-05-15T16:27:40.765Z,73.23
2023-05-15T16:28:40.786Z,75.23
2023-05-15T16:29:40.771Z,74.75
2023-05-15T16:30:49.023Z,75.55
2023-05-15T16:31:41.773Z,75.80
2023-05-15T16:32:40.741Z,75.74
2023-05-15T16:33:40.909Z,75.75
2023-05-15T16:34:40.750Z,77.38
2023-05-15T16:35:40.709Z,74.31
2023-05-15T16:36:40.719Z,75.34
2023-05-15T16:37:40.709Z,76.54
2023-05-15T16:38:40.695Z,73.12
2023-05-15T16:39:40.711Z,74.94
2023-05-15T16:40:40.690Z,72.22
2023-05-15T16:41:40.675Z,74.15
2023-05-15T16:42:40.670Z,70.54
2023-05-15T16:43:40.652Z,70.71
2023-05-15T16:44:40.651Z,69.71
2023-05-15T16:45:40.651Z,70.12
2023-05-15T16:46:40.691Z,70.47
2023-05-15T16:47:40.630Z,68.63
2023-05-15T16:48:40.639Z,69.24
2023-05-15T16:49:43.280Z,67.35
2023-05-15T16:50:40.610Z,71.19
2023-05-15T16:51:40.593Z,68.86
2023-05-15T16:52:40.593Z,69.98
2023-05-15T16:53:40.566Z,66.00
2023-05-15T16:54:40.624Z,64.46
2023-05-15T16:55:40.577Z,61.28
2023-05-15T16:56:40.543Z,61.31
2023-05-15T16:57:40.565Z,61.02
2023-05-15T16:58:40.597Z,62.47
2023-05-15T16:59:40.558Z,61.25
2023-05-15T17:00:40.553Z,58.43
2023-05-15T17:01:40.541Z,56.19
2023-05-15T17:02:40.582Z,52.79
2023-05-15T17:03:40.626Z,53.03
2023-05-15T17:04:40.485Z,54.80
2023-05-15T17:05:40.566Z,54.19
2023-05-15T17:06:40.513Z,52.96
2023-05-15T17:07:40.477Z,50.75
2023-05-15T17:08:40.488Z,53.57
2023-05-15T17:09:40.466Z,50.65
2023-05-15T17:10:40.485Z,53.00
2023-05-15T17:11:40.514Z,51.41
2023-05-15T17:12:40.450Z,50.00
2023-05-15T17:13:40.445Z,50.86
2023-05-15T17:14:40.421Z,53.91
2023-05-15T17:15:40.456Z,50.55
2023-05-15T17:16:40.481Z,50.00
2023-05-15T17:17:40.469Z,49.47
2023-05-15T17:18:40.445Z,54.89
2023-05-15T17:19:40.437Z,63.91
2023-05-15T17:20:40.411Z,66.28
2023-05-15T17:21:40.368Z,65.17
2023-05-15T17:22:40.409Z,63.76
2023-05-15T17:23:40.369Z,64.52
2023-05-15T17:24:50.727Z,65.47
2023-05-15T17:25:41.396Z,65.79
2023-05-15T17:26:40.382Z,66.39
2023-05-15T17:27:40.356Z,66.30
2023-05-15T17:28:40.392Z,67.81
2023-05-15T17:29:40.459Z,68.52
2023-05-15T17:30:40.343Z,67.88
2023-05-15T17:31:40.368Z,65.72
2023-05-15T17:32:40.390Z,69.49
2023-05-15T17:33:40.362Z,66.58
2023-05-15T17:34:40.307Z,66.20
2023-05-15T17:35:40.317Z,68.07
2023-05-15T17:36:40.343Z,63.57
2023-05-15T17:37:40.424Z,63.32
2023-05-15T17:38:40.459Z,62.82
2023-05-15T17:39:40.558Z,65.34
2023-05-15T17:40:40.557Z,66.61
2023-05-15T17:41:40.589Z,68.84
2023-05-15T17:42:40.577Z,67.11
2023-05-15T17:43:40.613Z,69.69
2023-05-15T17:44:40.623Z,72.75
2023-05-15T17:45:40.723Z,72.79
2023-05-15T17:46:40.650Z,74.28
2023-05-15T17:47:40.692Z,71.76
2023-05-15T17:48:40.652Z,72.05
2023-05-15T17:49:40.689Z,70.54
2023-05-15T17:50:40.694Z,72.06
2023-05-15T17:51:40.709Z,71.88
2023-05-15T17:52:40.733Z,72.90
2023-05-15T17:53:40.742Z,68.52
2023-05-15T17:54:40.755Z,68.40
2023-05-15T17:55:40.784Z,64.59
2023-05-15T17:56:47.781Z,61.17
2023-05-15T17:57:40.774Z,61.50
2023-05-15T17:58:40.769Z,62.01
2023-05-15T17:59:40.737Z,62.65
2023-05-15T18:00:40.792Z,62.85
2023-05-15T18:01:40.796Z,63.70
2023-05-15T18:02:40.777Z,66.37
2023-05-15T18:03:41.956Z,68.62
2023-05-15T18:04:40.750Z,66.53
2023-05-15T18:05:40.729Z,69.02
2023-05-15T18:06:40.687Z,70.90
2023-05-15T18:07:40.692Z,67.66
2023-05-15T18:08:40.691Z,66.89
2023-05-15T18:09:40.730Z,69.79
2023-05-15T18:10:40.691Z,70.33
2023-05-15T18:11:40.689Z,71.14
2023-05-15T18:12:40.648Z,70.36
2023-05-15T18:13:40.690Z,68.56
2023-05-15T18:14:40.665Z,68.31
2023-05-15T18:15:40.680Z,68.02
2023-05-15T18:16:40.678Z,64.23
2023-05-15T18:17:40.701Z,61.36
2023-05-15T18:18:40.643Z,62.10
2023-05-15T18:19:40.585Z,64.46
2023-05-15T18:20:40.632Z,59.74
2023-05-15T18:21:40.605Z,58.34
2023-05-15T18:22:40.630Z,58.30
2023-05-15T18:23:40.582Z,58.86
2023-05-15T18:24:40.594Z,60.35
2023-05-15T18:25:40.597Z,59.81
2023-05-15T18:26:40.580Z,56.10
2023-05-15T18:27:40.585Z,56.03
2023-05-15T18:28:40.557Z,53.95
2023-05-15T18:29:40.532Z,54.06
2023-05-15T18:30:40.528Z,51.38
2023-05-15T18:31:40.560Z,51.49
2023-05-15T18:32:40.541Z,53.43
2023-05-15T18:33:40.522Z,52.60
2023-05-15T18:34:41.181Z,54.83
2023-05-15T18:35:40.512Z,53.90
2023-05-15T18:36:40.520Z,53.06
2023-05-15T18:37:40.548Z,51.79
2023-05-15T18:38:40.483Z,51.86
2023-05-15T18:39:40.500Z,54.07
2023-05-15T18:40:40.468Z,52.23
2023-05-15T18:41:40.486Z,50.10
2023-05-15T18:42:40.469Z,52.44
2023-05-15T18:43:40.461Z,54.29
2023-05-15T18:44:40.465Z,54.61
2023-05-15T18:45:40.480Z,54.66
2023-05-15T18:46:40.547Z,53.26
2023-05-15T18:47:40.542Z,54.91
2023-05-15T18:48:40.613Z,52.16
2023-05-15T18:49:40.575Z,52.25
2023-05-15T18:50:40.569Z,51.42
2023-05-15T18:51:40.621Z,52.52
2023-05-15T18:52:40.647Z,50.89
2023-05-15T18:53:40.655Z,52.41
2023-05-15T18:54:40.713Z,52.99
2023-05-15T18:55:40.722Z,52.10
2023-05-15T18:56:47.734Z,50.50
2023-05-15T18:57:40.757Z,50.67
2023-05-15T18:58:40.714Z,51.21
2023-05-15T18:59:40.716Z,52.12
2023-05-15T19:00:40.690Z,52.34
2023-05-15T19:01:40.718Z,52.37
2023-05-15T19:02:40.810Z,53.36
2023-05-15T19:03:40.718Z,51.53
2023-05-15T19:04:40.704Z,53.88
2023-05-15T19:05:40.675Z,52.13
2023-05-15T19:06:40.687Z,53.58
2023-05-15T19:07:40.653Z,51.42
2023-05-15T19:08:40.642Z,55.49
2023-05-15T19:09:40.653Z,54.07
2023-05-15T19:10:40.616Z,54.43
2023-05-15T19:11:40.635Z,53.07
2023-05-15T19:12:40.655Z,52.67
2023-05-15T19:13:40.603Z,51.62
2023-05-15T19:14:40.619Z,53.59
2023-05-15T19:15:40.614Z,52.77
2023-05-15T19:16:40.587Z,52.18
2023-05-15T19:17:40.584Z,55.66
2023-05-15T19:18:40.666Z,54.78
2023-05-15T19:19:40.599Z,55.20
2023-05-15T19:20:40.565Z,53.99
2023-05-15T19:21:47.587Z,52.78
2023-05-15T19:22:40.566Z,52.98
2023-05-15T19:23:40.569Z,53.16
2023-05-15T19:24:40.516Z,52.84
2023-05-15T19:25:40.521Z,51.61
2023-05-15T19:26:40.508Z,53.75
2023-05-15T19:27:40.544Z,52.13
2023-05-15T19:28:40.494Z,51.27
2023-05-15T19:29:42.242Z,52.93
2023-05-15T19:30:40.516Z,54.66
2023-05-15T19:31:40.534Z,52.83
2023-05-15T19:32:40.578Z,53.51
2023-05-15T19:33:40.540Z,53.21
2023-05-15T19:34:40.620Z,54.03
2023-05-15T19:35:40.623Z,51.93
2023-05-15T19:36:40.676Z,50.72
2023-05-15T19:37:40.770Z,51.35
2023-05-15T19:38:40.742Z,53.41
2023-05-15T19:39:40.761Z,53.99
2023-05-15T19:40:40.812Z,53.91
2023-05-15T19:41:40.862Z,53.36
2023-05-15T19:42:40.911Z,51.65
2023-05-15T19:43:40.928Z,51.95
2023-05-15T19:44:40.981Z,53.58
2023-05-15T19:45:41.076Z,54.51
2023-05-15T19:46:41.138Z,52.94
2023-05-15T19:47:41.117Z,50.28
2023-05-15T19:48:41.127Z,52.75
2023-05-15T19:49:41.201Z,51.18
2023-05-15T19:50:41.218Z,50.00
2023-05-15T19:51:41.232Z,52.70
2023-05-15T19:52:42.403Z,52.75
2023-05-15T19:53:41.388Z,51.33
2023-05-15T19:54:41.290Z,52.89
2023-05-15T19:55:48.281Z,52.39
2023-05-15T19:56:41.249Z,52.78
2023-05-15T19:57:41.251Z,53.42
2023-05-15T19:58:41.236Z,53.63
2023-05-15T19:59:41.237Z,54.51
2023-05-15T20:00:41.248Z,53.04
2023-05-15T20:01:41.281Z,51.79
2023-05-15T20:02:41.312Z,50.57
2023-05-15T20:03:41.263Z,53.75
2023-05-15T20:04:41.215Z,51.23
2023-05-15T20:05:41.216Z,51.56
2023-05-15T20:06:41.204Z,53.42
2023-05-15T20:07:41.188Z,52.24
2023-05-15T20:08:41.168Z,51.27
2023-05-15T20:09:41.216Z,52.43
2023-05-15T20:10:41.270Z,50.43
2023-05-15T20:11:48.130Z,50.39
2023-05-15T20:12:41.199Z,50.73
2023-05-15T20:13:41.139Z,51.10
2023-05-15T20:14:41.156Z,51.81
2023-05-15T20:15:41.159Z,53.01
2023-05-15T20:16:41.335Z,53.48
2023-05-15T20:17:41.165Z,52.25
2023-05-15T20:18:41.150Z,51.42
2023-05-15T20:19:41.110Z,53.09
2023-05-15T20:20:41.097Z,52.09
2023-05-15T20:21:41.117Z,50.99
2023-05-15T20:22:41.155Z,51.70
2023-05-15T20:23:41.055Z,51.78
2023-05-15T20:24:41.065Z,51.90
2023-05-15T20:25:41.049Z,53.03
2023-05-15T20:26:41.072Z,50.00
2023-05-15T20:27:41.049Z,52.68
2023-05-15T20:28:42.101Z,52.79
2023-05-15T20:29:41.039Z,53.48
2023-05-15T20:30:41.013Z,51.64
2023-05-15T20:31:41.038Z,55.34
2023-05-15T20:32:41.181Z,53.82
2023-05-15T20:33:41.074Z,55.57
2023-05-15T20:34:42.654Z,53.11
2023-05-15T20:35:41.045Z,53.04
2023-05-15T20:36:41.106Z,51.75
2023-05-15T20:37:41.169Z,53.65
2023-05-15T20:38:41.216Z,52.87
2023-05-15T20:39:41.252Z,52.46
2023-05-15T20:40:41.298Z,53.69
2023-05-15T20:41:41.350Z,52.92
2023-05-15T20:42:41.406Z,51.74
2023-05-15T20:43:41.481Z,51.68
2023-05-15T20:44:41.509Z,55.24
2023-05-15T20:45:41.639Z,51.10
2023-05-15T20:46:48.617Z,52.47
2023-05-15T20:47:41.603Z,52.76
2023-05-15T20:48:41.633Z,53.02
2023-05-15T20:49:41.628Z,53.55
2023-05-15T20:50:41.629Z,54.40
2023-05-15T20:51:41.599Z,53.29
2023-05-15T20:52:41.583Z,50.97
2023-05-15T20:53:41.562Z,52.65
2023-05-15T20:54:41.528Z,52.64
2023-05-15T20:55:41.550Z,53.16
2023-05-15T20:56:41.544Z,52.95
2023-05-15T20:57:41.525Z,54.83
2023-05-15T20:58:41.556Z,50.78
2023-05-15T20:59:41.517Z,52.86
2023-05-15T21:00:41.494Z,51.94
2023-05-15T21:01:48.690Z,53.81
2023-05-15T21:02:41.525Z,54.11
2023-05-15T21:03:41.506Z,54.12
2023-05-15T21:04:41.522Z,53.67
2023-05-15T21:05:41.471Z,52.24
2023-05-15T21:06:41.481Z,56.37
2023-05-15T21:07:41.485Z,55.41
2023-05-15T21:08:41.448Z,52.51
2023-05-15T21:09:41.443Z,51.44
2023-05-15T21:10:41.441Z,52.09
2023-05-15T21:11:48.423Z,53.18
2023-05-15T21:12:41.414Z,53.41
2023-05-15T21:13:41.422Z,53.60
2023-05-15T21:14:41.453Z,54.30
2023-05-15T21:15:41.456Z,49.31
2023-05-15T21:16:41.463Z,54.03
2023-05-15T21:17:41.421Z,53.92
2023-05-15T21:18:41.494Z,53.93
2023-05-15T21:19:41.426Z,53.33
2023-05-15T21:20:41.397Z,52.18
2023-05-15T21:21:41.361Z,53.90
2023-05-15T21:22:41.369Z,52.14
2023-05-15T21:23:41.366Z,50.00
2023-05-15T21:24:41.343Z,54.41
2023-05-15T21:25:41.373Z,54.12
2023-05-15T21:26:48.358Z,54.84
2023-05-15T21:27:41.316Z,55.04
2023-05-15T21:28:41.343Z,55.26
2023-05-15T21:29:41.295Z,55.86
2023-05-15T21:30:41.311Z,54.36
2023-05-15T21:31:41.378Z,54.19
2023-05-15T21:32:41.312Z,50.86
2023-05-15T21:33:41.368Z,56.37
2023-05-15T21:34:41.281Z,54.27
2023-05-15T21:35:41.291Z,50.54
2023-05-15T21:36:41.289Z,50.96
2023-05-15T21:37:41.266Z,51.89
2023-05-15T21:38:41.250Z,52.56
2023-05-15T21:39:41.284Z,52.50
2023-05-15T21:40:41.249Z,52.80
2023-05-15T21:41:41.234Z,52.09
2023-05-15T21:42:41.216Z,54.30
2023-05-15T21:43:41.228Z,53.62
2023-05-15T21:44:41.222Z,56.84
2023-05-15T21:45:41.211Z,50.05
2023-05-15T21:46:41.227Z,54.79
2023-05-15T21:47:41.280Z,56.64
2023-05-15T21:48:41.186Z,59.73
2023-05-15T21:49:41.180Z,54.46
2023-05-15T21:50:41.182Z,51.18
2023-05-15T21:51:41.158Z,55.19
2023-05-15T21:52:41.240Z,56.71
2023-05-15T21:53:41.181Z,53.16
2023-05-15T21:54:41.147Z,54.80
2023-05-15T21:55:48.138Z,57.01
2023-05-15T21:56:41.135Z,57.37
2023-05-15T21:57:41.146Z,57.73
2023-05-15T21:58:41.125Z,57.98
2023-05-15T21:59:41.103Z,58.31
2023-05-15T22:00:41.115Z,60.35
2023-05-15T22:01:41.152Z,60.45
2023-05-15T22:02:41.279Z,59.21
2023-05-15T22:03:41.188Z,56.99
2023-05-15T22:04:41.124Z,58.19
2023-05-15T22:05:41.091Z,58.44
2023-05-15T22:06:41.069Z,53.69
2023-05-15T22:07:41.086Z,56.12
2023-05-15T22:08:41.050Z,59.58
2023-05-15T22:09:41.053Z,52.91
2023-05-15T22:10:49.421Z,57.42
2023-05-15T22:11:41.035Z,57.82
2023-05-15T22:12:41.080Z,58.15
2023-05-15T22:13:41.142Z,58.22
2023-05-15T22:14:54.693Z,58.64
2023-05-15T22:15:42.204Z,57.63
2023-05-15T22:16:41.253Z,58.11
2023-05-15T22:17:41.181Z,57.68
2023-05-15T22:18:41.174Z,58.20
2023-05-15T22:19:41.223Z,58.52
2023-05-15T22:20:41.124Z,53.45
2023-05-15T22:21:41.098Z,55.02
2023-05-15T22:22:41.102Z,52.59
2023-05-15T22:23:41.121Z,53.34
2023-05-15T22:24:41.094Z,57.85
2023-05-15T22:25:48.089Z,53.12
2023-05-15T22:26:41.087Z,53.50
2023-05-15T22:27:41.110Z,54.17
2023-05-15T22:28:41.082Z,53.65
2023-05-15T22:29:41.061Z,54.09
2023-05-15T22:30:41.070Z,55.10
2023-05-15T22:31:41.055Z,53.88
2023-05-15T22:32:41.042Z,56.35
2023-05-15T22:33:41.042Z,56.11
2023-05-15T22:34:41.125Z,55.15
2023-05-15T22:35:41.024Z,54.65
2023-05-15T22:36:41.038Z,54.84
2023-05-15T22:37:41.088Z,52.50
2023-05-15T22:38:41.022Z,54.75
2023-05-15T22:39:41.009Z,53.79
2023-05-15T22:40:47.989Z,56.46
2023-05-15T22:41:40.994Z,56.80
2023-05-15T22:42:40.981Z,57.43
2023-05-15T22:43:40.941Z,57.23
2023-05-15T22:44:40.969Z,53.97
2023-05-15T22:45:40.987Z,57.92
2023-05-15T22:46:40.984Z,57.11
2023-05-15T22:47:41.006Z,53.98
2023-05-15T22:48:40.946Z,52.81
2023-05-15T22:49:40.941Z,54.58
2023-05-15T22:50:40.928Z,55.89
2023-05-15T22:51:40.893Z,51.57
2023-05-15T22:52:40.906Z,55.32
2023-05-15T22:53:40.881Z,53.53
2023-05-15T22:54:40.898Z,51.08
2023-05-15T22:55:40.895Z,51.61
2023-05-15T22:56:40.862Z,52.11
2023-05-15T22:57:40.921Z,55.10
2023-05-15T22:58:40.856Z,54.09
2023-05-15T22:59:40.828Z,54.48
2023-05-15T23:00:40.829Z,55.07
2023-05-15T23:01:40.901Z,57.27
2023-05-15T23:02:42.665Z,54.65
2023-05-15T23:03:40.854Z,54.83
2023-05-15T23:04:40.850Z,54.78
2023-05-15T23:05:40.831Z,55.09
2023-05-15T23:06:40.796Z,52.56
2023-05-15T23:07:40.805Z,54.58
2023-05-15T23:08:47.773Z,51.27
2023-05-15T23:09:40.781Z,51.75
2023-05-15T23:10:40.776Z,52.34
2023-05-15T23:11:40.775Z,53.72
2023-05-15T23:12:40.756Z,52.76
2023-05-15T23:13:40.764Z,55.41
2023-05-15T23:14:40.758Z,53.52
2023-05-15T23:15:40.755Z,52.47
2023-05-15T23:16:40.726Z,52.25
2023-05-15T23:17:40.758Z,53.69
2023-05-15T23:18:40.861Z,53.97
2023-05-15T23:19:40.706Z,52.85
2023-05-15T23:20:40.733Z,53.84
2023-05-15T23:21:40.735Z,52.69
2023-05-15T23:22:40.713Z,51.08
2023-05-15T23:23:40.715Z,52.66
2023-05-15T23:24:47.736Z,53.32
2023-05-15T23:25:40.725Z,53.78
2023-05-15T23:26:40.678Z,54.72
2023-05-15T23:27:40.690Z,54.00
2023-05-15T23:28:40.686Z,53.95
2023-05-15T23:29:40.642Z,55.73
2023-05-15T23:30:40.710Z,58.67
2023-05-15T23:31:40.724Z,53.52
2023-05-15T23:32:40.636Z,55.71
2023-05-15T23:33:40.638Z,52.06
2023-05-15T23:34:40.598Z,51.31
2023-05-15T23:35:40.632Z,54.17
2023-05-15T23:36:40.627Z,52.24
2023-05-15T23:37:40.599Z,52.19
2023-05-15T23:38:40.605Z,50.77
2023-05-15T23:39:40.613Z,51.57
2023-05-15T23:40:40.619Z,52.93
2023-05-15T23:41:40.608Z,51.70
2023-05-15T23:42:40.559Z,50.77
2023-05-15T23:43:40.604Z,53.04
2023-05-15T23:44:40.545Z,54.12
2023-05-15T23:45:40.570Z,53.15
2023-05-15T23:46:40.600Z,52.90
2023-05-15T23:47:40.594Z,53.66
2023-05-15T23:48:47.563Z,51.49
2023-05-15T23:49:40.525Z,51.91
2023-05-15T23:50:40.546Z,52.50
2023-05-15T23:51:40.485Z,53.22
2023-05-15T23:52:40.496Z,54.72
2023-05-15T23:53:40.470Z,56.49
2023-05-15T23:54:40.514Z,56.43
2023-05-15T23:55:40.512Z,56.69
2023-05-15T23:56:40.505Z,55.48
2023-05-15T23:57:40.455Z,54.99
2023-05-15T23:58:40.478Z,53.09
2023-05-15T23:59:40.426Z,53.61
